Time;durP1;ratioP1;P1;durP2;ratioP2;P2;SDS_P1;SDS_P2;PMS_P1;PMS_P2;Temp;Humidity;BMP_temperature;BMP_pressure;BME280_temperature;BME280_humidity;BME280_pressure;Samples;Min_cycle;Max_cycle;Signal;HPM_P1;HPM_P2
2021/09/12 00:00:05;;;;;;;3.58;2.00;;;;;;;;;;5054495;28;20021;-52
2021/09/12 00:02:30;;;;;;;3.50;1.92;;;;;;;;;;5054673;28;20393;-52
2021/09/12 00:04:56;;;;;;;2.75;2.00;;;;;;;;;;5053638;28;20462;-52
2021/09/12 00:07:22;;;;;;;7.32;2.28;;;;;;;;;;5045419;28;20065;-52
2021/09/12 00:09:48;;;;;;;9.18;2.50;;;;;;;;;;5036637;28;20044;-52
2021/09/12 00:12:14;;;;;;;4.45;2.50;;;;;;;;;;5042153;28;20439;-52
2021/09/12 00:14:40;;;;;;;6.53;2.40;;;;;;;;;;5053523;28;20025;-52
2021/09/12 00:17:06;;;;;;;3.65;2.42;;;;;;;;;;5053810;28;20355;-51
2021/09/12 00:19:32;;;;;;;5.40;2.58;;;;;;;;;;5045516;28;20025;-52
2021/09/12 00:21:58;;;;;;;3.95;2.60;;;;;;;;;;5033759;28;20033;-52
2021/09/12 00:24:24;;;;;;;3.05;2.10;;;;;;;;;;5035111;28;20030;-52
2021/09/12 00:26:50;;;;;;;3.70;2.38;;;;;;;;;;5049941;28;20024;-52
2021/09/12 00:29:18;;;;;;;3.30;2.08;;;;;;;;;;5053528;28;20354;-52
2021/09/12 00:31:44;;;;;;;3.30;2.10;;;;;;;;;;5054048;28;20047;-52
2021/09/12 00:34:10;;;;;;;2.95;2.20;;;;;;;;;;5053345;28;20043;-52
2021/09/12 00:36:36;;;;;;;4.55;3.00;;;;;;;;;;5053555;28;20382;-52
2021/09/12 00:39:02;;;;;;;2.83;1.80;;;;;;;;;;5033047;28;20505;-52
2021/09/12 00:41:34;;;;;;;2.70;1.85;;;;;;;;;;5053005;28;21607;-52
2021/09/12 00:44:01;;;;;;;2.47;1.83;;;;;;;;;;5052818;28;20025;-52
2021/09/12 00:46:27;;;;;;;2.85;1.77;;;;;;;;;;5053250;28;20106;-52
2021/09/12 00:48:53;;;;;;;2.13;1.77;;;;;;;;;;5053960;28;20419;-52
2021/09/12 00:51:19;;;;;;;4.75;2.40;;;;;;;;;;5053562;28;20041;-52
2021/09/12 00:53:46;;;;;;;3.25;2.28;;;;;;;;;;5035041;28;20439;-52
2021/09/12 00:56:13;;;;;;;6.55;2.25;;;;;;;;;;5050303;28;20033;-52
2021/09/12 00:58:40;;;;;;;3.67;2.03;;;;;;;;;;5053302;28;20020;-52
2021/09/12 01:01:06;;;;;;;5.72;1.92;;;;;;;;;;5052576;28;20075;-51
2021/09/12 01:03:31;;;;;;;2.75;1.90;;;;;;;;;;5052899;28;20021;-51
2021/09/12 01:05:57;;;;;;;4.40;2.55;;;;;;;;;;5053004;28;20427;-52
2021/09/12 01:08:23;;;;;;;2.67;2.10;;;;;;;;;;5039871;28;20116;-52
2021/09/12 01:10:49;;;;;;;3.88;2.45;;;;;;;;;;5032655;28;20087;-52
2021/09/12 01:13:16;;;;;;;3.38;2.65;;;;;;;;;;5033096;28;20430;-52
2021/09/12 01:15:42;;;;;;;6.65;2.60;;;;;;;;;;5032595;28;20027;-52
2021/09/12 01:18:08;;;;;;;3.88;2.70;;;;;;;;;;5033648;28;20033;-52
2021/09/12 01:20:34;;;;;;;5.80;2.80;;;;;;;;;;5032947;28;20017;-52
2021/09/12 01:23:00;;;;;;;3.15;2.20;;;;;;;;;;5032684;28;20036;-52
2021/09/12 01:25:26;;;;;;;2.38;2.03;;;;;;;;;;5034512;28;20112;-52
2021/09/12 01:27:52;;;;;;;4.00;2.60;;;;;;;;;;5047441;28;20064;-52
2021/09/12 01:30:18;;;;;;;4.85;2.80;;;;;;;;;;5052249;28;20076;-51
2021/09/12 01:32:44;;;;;;;4.18;2.50;;;;;;;;;;5052859;28;20021;-52
2021/09/12 01:35:10;;;;;;;4.50;2.05;;;;;;;;;;5051965;28;20029;-52
2021/09/12 01:37:36;;;;;;;5.38;2.45;;;;;;;;;;5048455;28;20459;-52
2021/09/12 01:40:03;;;;;;;3.63;2.15;;;;;;;;;;5032826;28;20037;-51
2021/09/12 01:42:29;;;;;;;5.53;2.38;;;;;;;;;;5051355;28;20121;-52
2021/09/12 01:44:55;;;;;;;3.80;2.30;;;;;;;;;;5051582;28;20063;-52
2021/09/12 01:47:21;;;;;;;6.05;3.17;;;;;;;;;;5052772;28;20060;-51
2021/09/12 01:49:47;;;;;;;5.20;2.38;;;;;;;;;;5052675;28;20028;-52
2021/09/12 01:52:14;;;;;;;5.18;2.15;;;;;;;;;;5052323;28;20029;-51
2021/09/12 01:54:40;;;;;;;4.32;2.50;;;;;;;;;;5031446;28;20018;-53
2021/09/12 01:57:07;;;;;;;3.08;2.35;;;;;;;;;;5048993;28;20033;-52
2021/09/12 01:59:33;;;;;;;3.05;2.50;;;;;;;;;;5052569;28;20401;-52
2021/09/12 02:02:00;;;;;;;2.75;2.08;;;;;;;;;;5052519;28;20328;-52
2021/09/12 02:04:26;;;;;;;3.40;2.33;;;;;;;;;;5051159;28;20032;-52
2021/09/12 02:06:52;;;;;;;4.50;2.90;;;;;;;;;;5052486;28;20036;-52
2021/09/12 02:09:18;;;;;;;3.38;2.50;;;;;;;;;;5036312;28;20138;-51
2021/09/12 02:11:44;;;;;;;3.08;2.25;;;;;;;;;;5043032;28;20113;-52
2021/09/12 02:14:10;;;;;;;3.40;2.35;;;;;;;;;;5048146;28;20048;-51
2021/09/12 02:16:36;;;;;;;4.63;2.80;;;;;;;;;;5051928;28;20473;-51
2021/09/12 02:19:02;;;;;;;3.53;2.45;;;;;;;;;;5050904;28;20032;-52
2021/09/12 02:21:28;;;;;;;4.50;2.67;;;;;;;;;;5052403;28;20088;-51
2021/09/12 02:23:54;;;;;;;3.85;2.58;;;;;;;;;;5039415;28;20061;-52
2021/09/12 02:26:20;;;;;;;3.20;2.55;;;;;;;;;;5037340;28;20446;-51
2021/09/12 02:28:46;;;;;;;5.97;3.65;;;;;;;;;;5052553;28;20064;-51
2021/09/12 02:31:12;;;;;;;4.20;2.58;;;;;;;;;;5051723;28;20041;-52
2021/09/12 02:33:38;;;;;;;4.65;2.70;;;;;;;;;;5043819;28;20024;-52
2021/09/12 02:36:04;;;;;;;10.60;2.85;;;;;;;;;;5051762;28;20027;-51
2021/09/12 02:38:31;;;;;;;3.15;2.55;;;;;;;;;;5050916;28;20037;-51
2021/09/12 02:40:59;;;;;;;6.07;2.78;;;;;;;;;;5046701;28;20032;-51
2021/09/12 02:43:25;;;;;;;5.97;2.45;;;;;;;;;;5035252;28;20496;-51
2021/09/12 02:45:51;;;;;;;4.45;2.65;;;;;;;;;;5047027;28;20367;-52
2021/09/12 02:48:17;;;;;;;3.20;2.45;;;;;;;;;;5055501;28;20029;-52
2021/09/12 02:50:43;;;;;;;4.35;2.60;;;;;;;;;;5055890;28;20098;-51
2021/09/12 02:53:09;;;;;;;9.18;2.75;;;;;;;;;;5051686;28;20403;-52
2021/09/12 02:55:35;;;;;;;6.53;2.60;;;;;;;;;;5038642;28;20039;-51
2021/09/12 02:58:01;;;;;;;3.63;2.50;;;;;;;;;;5055355;28;20095;-51
2021/09/12 03:00:27;;;;;;;3.30;1.98;;;;;;;;;;5055002;28;20524;-52
2021/09/12 03:02:53;;;;;;;2.78;2.35;;;;;;;;;;5055316;28;20033;-52
2021/09/12 03:05:19;;;;;;;5.63;2.80;;;;;;;;;;5055067;28;20059;-52
2021/09/12 03:07:45;;;;;;;2.97;1.90;;;;;;;;;;5055489;28;20021;-52
2021/09/12 03:10:11;;;;;;;3.30;2.60;;;;;;;;;;5036196;28;20124;-52
2021/09/12 03:12:37;;;;;;;6.85;2.10;;;;;;;;;;5049160;28;20068;-51
2021/09/12 03:15:03;;;;;;;3.65;2.42;;;;;;;;;;5054777;28;20037;-52
2021/09/12 03:17:29;;;;;;;4.13;2.47;;;;;;;;;;5055323;28;20033;-51
2021/09/12 03:19:56;;;;;;;4.22;2.53;;;;;;;;;;5055370;28;20024;-52
2021/09/12 03:22:22;;;;;;;3.47;2.38;;;;;;;;;;5055154;28;20057;-51
2021/09/12 03:24:48;;;;;;;3.70;2.42;;;;;;;;;;5038981;28;20084;-52
2021/09/12 03:27:14;;;;;;;5.88;2.28;;;;;;;;;;5042930;28;20029;-51
2021/09/12 03:29:40;;;;;;;4.05;2.42;;;;;;;;;;5054817;28;20478;-51
2021/09/12 03:32:06;;;;;;;5.03;2.45;;;;;;;;;;5054936;28;20083;-52
2021/09/12 03:34:32;;;;;;;6.53;2.63;;;;;;;;;;5053863;28;20022;-52
2021/09/12 03:36:58;;;;;;;6.38;3.20;;;;;;;;;;5055196;28;20066;-52
2021/09/12 03:39:25;;;;;;;4.30;3.05;;;;;;;;;;5043655;28;20030;-51
2021/09/12 03:41:51;;;;;;;6.45;2.67;;;;;;;;;;5049009;28;20052;-51
2021/09/12 03:44:17;;;;;;;8.45;2.60;;;;;;;;;;5053676;28;20028;-51
2021/09/12 03:46:43;;;;;;;3.95;2.20;;;;;;;;;;5053794;28;20029;-52
2021/09/12 03:49:09;;;;;;;6.60;2.42;;;;;;;;;;5054445;28;20056;-51
2021/09/12 03:51:35;;;;;;;8.98;2.97;;;;;;;;;;5054197;28;20039;-52
2021/09/12 03:54:00;;;;;;;4.75;2.63;;;;;;;;;;5046593;28;20470;-52
2021/09/12 03:56:26;;;;;;;4.22;2.38;;;;;;;;;;5036967;28;20103;-52
2021/09/12 03:58:52;;;;;;;8.27;2.38;;;;;;;;;;5054686;28;20059;-51
2021/09/12 04:01:18;;;;;;;4.55;2.55;;;;;;;;;;5054540;28;20044;-51
2021/09/12 04:03:44;;;;;;;3.88;2.58;;;;;;;;;;5053404;28;20482;-52
2021/09/12 04:06:10;;;;;;;8.73;3.50;;;;;;;;;;5054521;28;20025;-51
2021/09/12 04:08:36;;;;;;;5.38;2.55;;;;;;;;;;5051895;28;20021;-52
2021/09/12 04:11:03;;;;;;;5.40;2.83;;;;;;;;;;5040758;28;20076;-51
2021/09/12 04:13:29;;;;;;;5.28;2.80;;;;;;;;;;5047316;28;20374;-52
2021/09/12 04:15:55;;;;;;;6.85;2.55;;;;;;;;;;5054059;28;20029;-51
2021/09/12 04:18:21;;;;;;;6.10;2.55;;;;;;;;;;5054472;28;20027;-51
2021/09/12 04:20:47;;;;;;;4.35;2.33;;;;;;;;;;5054161;28;20029;-51
2021/09/12 04:23:13;;;;;;;6.50;2.67;;;;;;;;;;5053722;28;20063;-51
2021/09/12 04:25:39;;;;;;;5.10;2.40;;;;;;;;;;5049306;28;20041;-51
2021/09/12 04:28:05;;;;;;;4.57;2.42;;;;;;;;;;5049807;28;20462;-52
2021/09/12 04:30:31;;;;;;;5.32;2.33;;;;;;;;;;5053531;28;20041;-51
2021/09/12 04:32:57;;;;;;;3.95;2.67;;;;;;;;;;5053949;28;20075;-52
2021/09/12 04:35:23;;;;;;;5.63;2.58;;;;;;;;;;5052817;28;20073;-51
2021/09/12 04:37:48;;;;;;;5.70;2.72;;;;;;;;;;5053940;28;20112;-51
2021/09/12 04:40:14;;;;;;;4.97;2.60;;;;;;;;;;5039923;28;20059;-51
2021/09/12 04:42:40;;;;;;;6.30;2.42;;;;;;;;;;5045612;28;20032;-51
2021/09/12 04:45:07;;;;;;;7.35;2.95;;;;;;;;;;5052908;28;20042;-52
2021/09/12 04:47:33;;;;;;;5.32;2.50;;;;;;;;;;5053602;28;20021;-51
2021/09/12 04:49:59;;;;;;;5.45;2.60;;;;;;;;;;5053097;28;20370;-52
2021/09/12 04:52:25;;;;;;;3.92;2.60;;;;;;;;;;5053653;28;20021;-52
2021/09/12 04:54:51;;;;;;;3.50;2.78;;;;;;;;;;5043072;28;20087;-51
2021/09/12 04:57:17;;;;;;;3.28;2.13;;;;;;;;;;5042753;28;20032;-52
2021/09/12 04:59:42;;;;;;;5.97;2.67;;;;;;;;;;5053144;28;20362;-52
2021/09/12 05:02:09;;;;;;;5.10;2.67;;;;;;;;;;5053284;28;20067;-52
2021/09/12 05:04:34;;;;;;;3.55;2.55;;;;;;;;;;5052456;28;20489;-52
2021/09/12 05:07:00;;;;;;;4.85;2.83;;;;;;;;;;5052906;28;20025;-51
2021/09/12 05:09:26;;;;;;;5.82;2.78;;;;;;;;;;5048395;28;20022;-52
2021/09/12 05:11:52;;;;;;;3.95;2.35;;;;;;;;;;5035461;28;20029;-52
2021/09/12 05:14:18;;;;;;;4.38;2.45;;;;;;;;;;5045308;28;20366;-51
2021/09/12 05:16:44;;;;;;;3.95;2.35;;;;;;;;;;5043366;28;20022;-52
2021/09/12 05:19:10;;;;;;;7.40;2.65;;;;;;;;;;5041775;28;20018;-51
2021/09/12 05:21:36;;;;;;;4.55;2.50;;;;;;;;;;5042976;28;20036;-52
2021/09/12 05:24:02;;;;;;;4.57;2.35;;;;;;;;;;5042306;28;20025;-52
2021/09/12 05:26:28;;;;;;;7.60;2.70;;;;;;;;;;5039033;28;20115;-51
2021/09/12 05:28:54;;;;;;;3.00;2.20;;;;;;;;;;5040780;28;20128;-51
2021/09/12 05:31:20;;;;;;;3.08;2.20;;;;;;;;;;5041109;28;20040;-52
2021/09/12 05:33:47;;;;;;;5.38;2.38;;;;;;;;;;5041486;28;20095;-51
2021/09/12 05:36:13;;;;;;;2.40;2.20;;;;;;;;;;5041966;28;20017;-51
2021/09/12 05:38:41;;;;;;;6.38;2.55;;;;;;;;;;5041293;28;20042;-52
2021/09/12 05:41:06;;;;;;;3.75;2.30;;;;;;;;;;5040110;28;20037;-52
2021/09/12 05:43:33;;;;;;;3.95;2.47;;;;;;;;;;5045882;28;20059;-52
2021/09/12 05:45:59;;;;;;;3.45;2.35;;;;;;;;;;5039855;28;20029;-51
2021/09/12 05:48:25;;;;;;;3.67;2.55;;;;;;;;;;5042135;28;20026;-51
2021/09/12 05:50:51;;;;;;;4.63;3.00;;;;;;;;;;5043786;28;20488;-52
2021/09/12 05:53:19;;;;;;;4.45;3.00;;;;;;;;;;5042914;28;20048;-52
2021/09/12 05:55:47;;;;;;;2.90;2.47;;;;;;;;;;5036986;28;20056;-52
2021/09/12 05:58:13;;;;;;;2.92;2.03;;;;;;;;;;5045252;28;20034;-52
2021/09/12 06:00:39;;;;;;;2.38;2.10;;;;;;;;;;5043316;28;20125;-52
2021/09/12 06:03:05;;;;;;;8.07;2.17;;;;;;;;;;5040923;28;20629;-52
2021/09/12 06:05:31;;;;;;;3.78;1.98;;;;;;;;;;5041375;28;20103;-52
2021/09/12 06:07:57;;;;;;;6.80;2.58;;;;;;;;;;5032669;28;20093;-52
2021/09/12 06:10:23;;;;;;;3.65;2.70;;;;;;;;;;5036223;28;20080;-52
2021/09/12 06:12:49;;;;;;;3.15;2.47;;;;;;;;;;5034956;28;20031;-52
2021/09/12 06:15:15;;;;;;;6.15;2.88;;;;;;;;;;5045828;28;20037;-52
2021/09/12 06:17:41;;;;;;;8.70;3.60;;;;;;;;;;5037609;28;20064;-52
2021/09/12 06:20:07;;;;;;;6.13;3.30;;;;;;;;;;5036724;28;20155;-52
2021/09/12 06:22:33;;;;;;;6.95;3.38;;;;;;;;;;5036539;28;20106;-52
2021/09/12 06:24:59;;;;;;;4.90;2.70;;;;;;;;;;5042626;28;20087;-52
2021/09/12 06:27:25;;;;;;;3.22;2.40;;;;;;;;;;5046879;28;20025;-52
2021/09/12 06:29:51;;;;;;;3.75;2.80;;;;;;;;;;5046077;28;20037;-52
2021/09/12 06:32:17;;;;;;;9.88;3.03;;;;;;;;;;5049031;28;20202;-52
2021/09/12 06:34:43;;;;;;;8.40;2.90;;;;;;;;;;5047544;28;20112;-52
2021/09/12 06:37:09;;;;;;;4.97;2.53;;;;;;;;;;5045020;28;20025;-52
2021/09/12 06:39:35;;;;;;;11.80;3.33;;;;;;;;;;5046809;28;20017;-52
2021/09/12 06:42:01;;;;;;;4.90;2.80;;;;;;;;;;5046373;28;20467;-52
2021/09/12 06:44:27;;;;;;;2.83;2.28;;;;;;;;;;5049141;28;20022;-52
2021/09/12 06:46:53;;;;;;;3.30;2.58;;;;;;;;;;5045367;28;20021;-52
2021/09/12 06:49:19;;;;;;;8.50;2.90;;;;;;;;;;5045458;28;20036;-52
2021/09/12 06:51:45;;;;;;;4.10;3.08;;;;;;;;;;5042130;28;20444;-52
2021/09/12 06:54:11;;;;;;;3.55;2.50;;;;;;;;;;5043192;28;20045;-52
2021/09/12 06:56:37;;;;;;;5.82;2.65;;;;;;;;;;5039845;28;20439;-52
2021/09/12 06:59:03;;;;;;;8.05;3.70;;;;;;;;;;5047337;28;20014;-52
2021/09/12 07:01:29;;;;;;;4.38;2.92;;;;;;;;;;5046976;28;20350;-52
2021/09/12 07:03:55;;;;;;;4.80;3.38;;;;;;;;;;5043239;28;20113;-52
2021/09/12 07:06:21;;;;;;;6.63;3.30;;;;;;;;;;5045788;28;20029;-52
2021/09/12 07:08:47;;;;;;;5.72;3.40;;;;;;;;;;5050713;28;20028;-52
2021/09/12 07:11:13;;;;;;;6.72;3.88;;;;;;;;;;5044135;28;20043;-52
2021/09/12 07:13:42;;;;;;;7.00;3.60;;;;;;;;;;5048692;28;20025;-52
2021/09/12 07:16:08;;;;;;;6.43;3.42;;;;;;;;;;5055013;28;20074;-53
2021/09/12 07:18:34;;;;;;;5.75;4.07;;;;;;;;;;5055544;28;20037;-52
2021/09/12 07:21:00;;;;;;;5.80;3.63;;;;;;;;;;5055017;28;20382;-53
2021/09/12 07:23:26;;;;;;;7.93;3.60;;;;;;;;;;5054466;28;20431;-52
2021/09/12 07:25:52;;;;;;;10.48;3.78;;;;;;;;;;5046158;28;20082;-52
2021/09/12 07:28:18;;;;;;;6.13;3.25;;;;;;;;;;5043914;28;20029;-52
2021/09/12 07:30:44;;;;;;;5.90;4.07;;;;;;;;;;5054651;28;20064;-52
2021/09/12 07:33:10;;;;;;;7.05;4.30;;;;;;;;;;5054769;28;20017;-52
2021/09/12 07:35:36;;;;;;;9.18;4.43;;;;;;;;;;5054093;28;20120;-52
2021/09/12 07:38:02;;;;;;;14.68;4.80;;;;;;;;;;5054836;28;20096;-52
2021/09/12 07:40:28;;;;;;;8.32;4.40;;;;;;;;;;5052005;28;20401;-52
2021/09/12 07:42:54;;;;;;;10.38;4.70;;;;;;;;;;5040706;28;20086;-52
2021/09/12 07:45:20;;;;;;;12.93;6.72;;;;;;;;;;5036770;28;20031;-51
2021/09/12 07:47:46;;;;;;;10.13;4.07;;;;;;;;;;5037678;28;20022;-52
2021/09/12 07:50:12;;;;;;;9.05;5.50;;;;;;;;;;5047640;28;20038;-52
2021/09/12 07:52:42;;;;;;;15.40;6.53;;;;;;;;;;5054437;28;20018;-52
2021/09/12 07:55:08;;;;;;;;;;;;;;;;;;5054214;28;20029;-52
2021/09/12 07:57:34;;;;;;;17.60;5.00;;;;;;;;;;5038470;28;19912;-52
2021/09/12 08:00:00;;;;;;;16.60;7.60;;;;;;;;;;5054241;28;20059;-52
2021/09/12 08:02:26;;;;;;;15.05;7.25;;;;;;;;;;5053950;28;20020;-52
2021/09/12 08:04:52;;;;;;;18.58;7.82;;;;;;;;;;5053353;28;20028;-52
2021/09/12 08:07:18;;;;;;;13.35;6.68;;;;;;;;;;5054324;28;20029;-52
2021/09/12 08:09:44;;;;;;;15.25;8.52;;;;;;;;;;5054304;28;20111;-52
2021/09/12 08:12:10;;;;;;;33.10;13.55;;;;;;;;;;5043417;28;20033;-52
2021/09/12 08:14:37;;;;;;;18.80;9.30;;;;;;;;;;5053455;28;20040;-52
2021/09/12 08:17:03;;;;;;;23.92;11.48;;;;;;;;;;5054123;28;20029;-52
2021/09/12 08:19:29;;;;;;;31.48;10.00;;;;;;;;;;5054219;28;20024;-52
2021/09/12 08:21:55;;;;;;;27.77;10.65;;;;;;;;;;5052341;28;20328;-52
2021/09/12 08:24:21;;;;;;;35.47;12.27;;;;;;;;;;5053236;28;20044;-51
2021/09/12 08:26:47;;;;;;;60.20;16.45;;;;;;;;;;5049734;28;20502;-52
2021/09/12 08:29:13;;;;;;;48.67;13.35;;;;;;;;;;5051153;28;20025;-52
2021/09/12 08:31:39;;;;;;;57.03;18.50;;;;;;;;;;5053641;28;20039;-51
2021/09/12 08:34:05;;;;;;;46.63;15.77;;;;;;;;;;5052668;28;20044;-52
2021/09/12 08:36:31;;;;;;;53.80;16.17;;;;;;;;;;5053440;28;20025;-51
2021/09/12 08:38:57;;;;;;;49.80;14.45;;;;;;;;;;5052662;28;20402;-51
2021/09/12 08:41:24;;;;;;;58.72;19.00;;;;;;;;;;5047276;28;20033;-51
2021/09/12 08:43:50;;;;;;;49.38;15.95;;;;;;;;;;5045984;28;20458;-52
2021/09/12 08:46:18;;;;;;;34.20;13.25;;;;;;;;;;5053252;28;20044;-51
2021/09/12 08:48:44;;;;;;;28.40;11.65;;;;;;;;;;5042795;28;20128;-52
2021/09/12 08:51:10;;;;;;;32.65;10.98;;;;;;;;;;5041942;28;20455;-52
2021/09/12 08:53:36;;;;;;;19.45;9.60;;;;;;;;;;5051867;28;20057;-52
2021/09/12 08:56:03;;;;;;;10.88;5.22;;;;;;;;;;5049867;28;20048;-52
2021/09/12 08:58:29;;;;;;;9.45;4.70;;;;;;;;;;5044306;28;20033;-52
2021/09/12 09:01:01;;;;;;;9.18;5.00;;;;;;;;;;5052785;28;20482;-52
2021/09/12 09:03:37;;;;;;;7.75;5.15;;;;;;;;;;5052670;28;20074;-52
2021/09/12 09:06:13;;;;;;;7.63;5.00;;;;;;;;;;5053594;28;20051;-51
2021/09/12 09:08:49;;;;;;;6.20;3.92;;;;;;;;;;5052949;28;20135;-52
2021/09/12 09:11:15;;;;;;;6.35;3.65;;;;;;;;;;5050046;28;20111;-52
2021/09/12 09:13:41;;;;;;;5.20;3.28;;;;;;;;;;5046853;28;20116;-51
2021/09/12 09:16:08;;;;;;;7.25;2.30;;;;;;;;;;5053475;28;20025;-51
2021/09/12 09:18:38;;;;;;;3.85;2.65;;;;;;;;;;5052354;28;20439;-52
2021/09/12 09:21:26;;;;;;;6.03;2.58;;;;;;;;;;5053378;28;20025;-52
2021/09/12 09:24:08;;;;;;;2.53;2.25;;;;;;;;;;5051441;28;20446;-51
2021/09/12 09:26:44;;;;;;;6.05;2.28;;;;;;;;;;5032113;28;20029;-52
2021/09/12 09:29:11;;;;;;;3.08;2.33;;;;;;;;;;5048956;28;20029;-52
2021/09/12 09:31:37;;;;;;;4.03;2.20;;;;;;;;;;5052777;28;20069;-52
2021/09/12 09:34:17;;;;;;;4.53;2.13;;;;;;;;;;5051176;28;20354;-52
2021/09/12 09:36:43;;;;;;;3.70;2.28;;;;;;;;;;5052818;28;20124;-52
2021/09/12 09:39:09;;;;;;;2.60;2.10;;;;;;;;;;5052534;28;20179;-52
2021/09/12 09:41:39;;;;;;;3.20;2.10;;;;;;;;;;5047897;28;20439;-52
2021/09/12 09:44:13;;;;;;;2.93;2.13;;;;;;;;;;5047570;28;20071;-52
2021/09/12 09:46:43;;;;;;;3.50;2.67;;;;;;;;;;5050804;28;20252;-51
2021/09/12 09:49:09;;;;;;;;;;;;;;;;;;5052040;28;20033;-51
2021/09/12 09:51:35;;;;;;;4.32;1.92;;;;;;;;;;5052788;28;20250;-52
2021/09/12 09:54:01;;;;;;;4.63;2.47;;;;;;;;;;5051318;28;20109;-52
2021/09/12 09:56:29;;;;;;;3.40;2.38;;;;;;;;;;5051206;28;20036;-51
2021/09/12 09:58:56;;;;;;;3.17;1.95;;;;;;;;;;5027740;28;20037;-51
2021/09/12 10:01:22;;;;;;;4.43;1.95;;;;;;;;;;5048661;28;20036;-51
2021/09/12 10:03:48;;;;;;;3.13;2.00;;;;;;;;;;5051525;28;20021;-51
2021/09/12 10:06:14;;;;;;;3.28;2.10;;;;;;;;;;5036801;28;20056;-51
2021/09/12 10:08:40;;;;;;;2.05;1.88;;;;;;;;;;5032384;28;20029;-51
2021/09/12 10:11:07;;;;;;;5.55;1.92;;;;;;;;;;5032193;28;20503;-51
2021/09/12 10:13:33;;;;;;;3.38;1.90;;;;;;;;;;5034206;28;20049;-52
2021/09/12 10:16:02;;;;;;;2.40;1.65;;;;;;;;;;5052153;28;20104;-52
2021/09/12 10:18:29;;;;;;;3.73;2.10;;;;;;;;;;5051199;28;20366;-51
2021/09/12 10:20:55;;;;;;;2.38;1.60;;;;;;;;;;5051930;28;20470;-51
2021/09/12 10:23:26;;;;;;;2.10;1.77;;;;;;;;;;5071850;28;20028;-52
2021/09/12 10:26:02;;;;;;;2.20;1.90;;;;;;;;;;5056324;28;20028;-52
2021/09/12 10:28:31;;;;;;;3.08;2.13;;;;;;;;;;5038381;28;20038;-51
2021/09/12 10:30:58;;;;;;;3.38;2.05;;;;;;;;;;5050591;28;20036;-52
2021/09/12 10:33:26;;;;;;;2.67;1.80;;;;;;;;;;5052254;28;20075;-51
2021/09/12 10:35:57;;;;;;;2.22;1.98;;;;;;;;;;5051162;28;20072;-52
2021/09/12 10:38:24;;;;;;;4.80;2.28;;;;;;;;;;5051742;28;20033;-51
2021/09/12 10:40:50;;;;;;;3.88;2.17;;;;;;;;;;5051882;28;20032;-52
2021/09/12 10:43:30;;;;;;;2.83;2.00;;;;;;;;;;5038877;28;20025;-51
2021/09/12 10:46:04;;;;;;;6.57;2.92;;;;;;;;;;5051666;28;20242;-52
2021/09/12 10:48:37;;;;;;;4.47;2.05;;;;;;;;;;5052344;28;20075;-52
2021/09/12 10:51:07;;;;;;;3.42;1.90;;;;;;;;;;5052140;28;20029;-52
2021/09/12 10:53:46;;;;;;;4.43;2.38;;;;;;;;;;5051649;28;20025;-51
2021/09/12 10:56:13;;;;;;;4.72;2.90;;;;;;;;;;5051617;28;20490;-51
2021/09/12 10:58:39;;;;;;;2.60;1.58;;;;;;;;;;5043286;28;20114;-52
2021/09/12 11:01:06;;;;;;;5.60;1.73;;;;;;;;;;5053643;28;20458;-52
2021/09/12 11:03:33;;;;;;;11.32;2.92;;;;;;;;;;5055237;28;20021;-52
2021/09/12 11:05:59;;;;;;;2.55;1.70;;;;;;;;;;5055579;28;20052;-52
2021/09/12 11:08:39;;;;;;;2.28;1.60;;;;;;;;;;5055793;28;20021;-51
2021/09/12 11:11:06;;;;;;;3.00;1.85;;;;;;;;;;5054844;28;20099;-51
2021/09/12 11:13:33;;;;;;;2.03;1.38;;;;;;;;;;5039582;28;20459;-52
2021/09/12 11:16:13;;;;;;;2.03;1.50;;;;;;;;;;5054862;28;20367;-51
2021/09/12 11:18:46;;;;;;;6.05;2.03;;;;;;;;;;5054804;28;20639;-52
2021/09/12 11:21:12;;;;;;;2.70;1.60;;;;;;;;;;5055417;28;20032;-51
2021/09/12 11:23:40;;;;;;;1.58;1.25;;;;;;;;;;5054186;28;20353;-52
2021/09/12 11:26:06;;;;;;;2.63;2.03;;;;;;;;;;5051069;28;20443;-51
2021/09/12 11:28:33;;;;;;;4.18;1.73;;;;;;;;;;5035727;28;20032;-52
2021/09/12 11:31:01;;;;;;;2.58;1.70;;;;;;;;;;5054797;28;20048;-52
2021/09/12 11:33:49;;;;;;;2.28;1.58;;;;;;;;;;5054709;28;20048;-52
2021/09/12 11:36:16;;;;;;;2.28;1.65;;;;;;;;;;5054824;28;20071;-52
2021/09/12 11:38:42;;;;;;;2.83;2.05;;;;;;;;;;5051991;28;20025;-51
2021/09/12 11:41:08;;;;;;;1.98;1.55;;;;;;;;;;5044654;28;20206;-51
2021/09/12 11:43:36;;;;;;;4.55;1.60;;;;;;;;;;5041996;28;20040;-52
2021/09/12 11:46:14;;;;;;;2.22;1.80;;;;;;;;;;5045346;28;20064;-51
2021/09/12 11:48:51;;;;;;;4.35;1.80;;;;;;;;;;5043630;28;20024;-52
2021/09/12 11:51:23;;;;;;;2.05;1.60;;;;;;;;;;5045325;28;20076;-51
2021/09/12 11:53:49;;;;;;;4.60;1.58;;;;;;;;;;5041043;28;20341;-51
2021/09/12 11:56:15;;;;;;;2.10;1.90;;;;;;;;;;5043641;28;20028;-51
2021/09/12 11:58:41;;;;;;;2.20;2.00;;;;;;;;;;5044736;28;20025;-51
2021/09/12 12:01:09;;;;;;;2.70;2.05;;;;;;;;;;5045839;28;20021;-51
2021/09/12 12:03:38;;;;;;;4.60;2.40;;;;;;;;;;5041706;28;20036;-51
2021/09/12 12:06:09;;;;;;;2.75;1.75;;;;;;;;;;5042259;28;20032;-51
2021/09/12 12:08:35;;;;;;;2.53;1.65;;;;;;;;;;5043047;28;20394;-51
2021/09/12 12:11:06;;;;;;;4.93;2.90;;;;;;;;;;5042225;28;20040;-51
2021/09/12 12:13:32;;;;;;;2.67;1.83;;;;;;;;;;5043484;28;20075;-51
2021/09/12 12:16:00;;;;;;;3.15;1.90;;;;;;;;;;5053619;28;20033;-51
2021/09/12 12:18:26;;;;;;;2.40;1.45;;;;;;;;;;5053879;28;20443;-52
2021/09/12 12:20:54;;;;;;;3.05;1.75;;;;;;;;;;5053320;28;20045;-51
2021/09/12 12:23:24;;;;;;;3.65;1.92;;;;;;;;;;5053507;28;20374;-51
2021/09/12 12:25:51;;;;;;;2.75;1.83;;;;;;;;;;5051594;28;20082;-51
2021/09/12 12:28:17;;;;;;;2.10;1.65;;;;;;;;;;5033987;28;20033;-51
2021/09/12 12:30:44;;;;;;;3.20;2.15;;;;;;;;;;5052941;28;20143;-51
2021/09/12 12:33:12;;;;;;;2.65;1.80;;;;;;;;;;5054069;28;20111;-51
2021/09/12 12:35:38;;;;;;;4.63;1.95;;;;;;;;;;5049785;28;20370;-51
2021/09/12 12:38:04;;;;;;;2.95;1.95;;;;;;;;;;5035935;28;20279;-51
2021/09/12 12:40:31;;;;;;;2.92;1.60;;;;;;;;;;5042190;28;20032;-51
2021/09/12 12:43:02;;;;;;;2.75;1.85;;;;;;;;;;5041208;28;20021;-51
2021/09/12 12:45:29;;;;;;;3.35;2.20;;;;;;;;;;5044510;28;20026;-51
2021/09/12 12:47:56;;;;;;;4.05;1.98;;;;;;;;;;5041046;28;20025;-51
2021/09/12 12:50:31;;;;;;;4.18;2.22;;;;;;;;;;5043806;28;20437;-52
2021/09/12 12:53:38;;;;;;;5.07;2.10;;;;;;;;;;5053155;28;20078;-51
2021/09/12 12:56:03;;;;;;;2.22;1.80;;;;;;;;;;5052009;28;20033;-51
2021/09/12 12:58:30;;;;;;;2.28;1.88;;;;;;;;;;5049989;28;20029;-51
2021/09/12 13:00:57;;;;;;;7.40;2.35;;;;;;;;;;5052778;28;20086;-51
2021/09/12 13:03:23;;;;;;;2.08;1.75;;;;;;;;;;5053222;28;20021;-51
2021/09/12 13:05:49;;;;;;;3.33;1.85;;;;;;;;;;5051719;28;20036;-51
2021/09/12 13:08:17;;;;;;;5.13;1.85;;;;;;;;;;5053376;28;20525;-51
2021/09/12 13:10:43;;;;;;;4.35;2.13;;;;;;;;;;5053070;28;20037;-51
2021/09/12 13:13:10;;;;;;;3.00;1.98;;;;;;;;;;5037925;28;20029;-51
2021/09/12 13:15:36;;;;;;;3.50;1.70;;;;;;;;;;5051961;28;20274;-51
2021/09/12 13:18:03;;;;;;;3.35;2.28;;;;;;;;;;5052869;28;20021;-51
2021/09/12 13:20:29;;;;;;;2.25;1.65;;;;;;;;;;5052959;28;20017;-51
2021/09/12 13:22:55;;;;;;;2.55;2.00;;;;;;;;;;5052565;28;20386;-51
2021/09/12 13:25:21;;;;;;;3.42;2.00;;;;;;;;;;5051729;28;20477;-51
2021/09/12 13:27:49;;;;;;;5.22;2.47;;;;;;;;;;5035006;28;20041;-51
2021/09/12 13:30:15;;;;;;;7.50;2.50;;;;;;;;;;5041003;28;20056;-51
2021/09/12 13:32:41;;;;;;;3.40;1.80;;;;;;;;;;5051847;28;20474;-51
2021/09/12 13:35:08;;;;;;;2.60;1.85;;;;;;;;;;5051884;28;20025;-51
2021/09/12 13:37:34;;;;;;;4.03;2.00;;;;;;;;;;5052519;28;20037;-51
2021/09/12 13:40:00;;;;;;;3.55;1.83;;;;;;;;;;5052981;28;20025;-51
2021/09/12 13:42:26;;;;;;;6.93;1.80;;;;;;;;;;5052324;28;20510;-51
2021/09/12 13:44:52;;;;;;;2.75;1.75;;;;;;;;;;5043014;28;20159;-51
2021/09/12 13:47:18;;;;;;;2.63;1.70;;;;;;;;;;5051997;28;20052;-51
2021/09/12 13:49:44;;;;;;;3.03;2.05;;;;;;;;;;5052599;28;20028;-51
2021/09/12 13:52:10;;;;;;;2.60;2.05;;;;;;;;;;5051993;28;20111;-51
2021/09/12 13:54:36;;;;;;;4.55;2.00;;;;;;;;;;5051695;28;20049;-52
2021/09/12 13:57:02;;;;;;;5.82;1.83;;;;;;;;;;5052906;28;20115;-51
2021/09/12 13:59:28;;;;;;;2.03;1.73;;;;;;;;;;5042534;28;20105;-51
2021/09/12 14:01:54;;;;;;;1.95;1.77;;;;;;;;;;5050241;28;20140;-51
2021/09/12 14:04:20;;;;;;;2.10;1.35;;;;;;;;;;5051751;28;20032;-52
2021/09/12 14:06:46;;;;;;;4.30;1.60;;;;;;;;;;5049654;28;20406;-52
2021/09/12 14:09:12;;;;;;;4.40;1.80;;;;;;;;;;5051064;28;20355;-51
2021/09/12 14:11:38;;;;;;;2.38;1.90;;;;;;;;;;5044755;28;20036;-51
2021/09/12 14:14:04;;;;;;;4.03;2.67;;;;;;;;;;5041342;28;20064;-52
2021/09/12 14:16:30;;;;;;;4.45;3.00;;;;;;;;;;5042613;28;20064;-51
2021/09/12 14:18:56;;;;;;;2.28;2.00;;;;;;;;;;5050672;28;20031;-51
2021/09/12 14:21:22;;;;;;;1.77;1.40;;;;;;;;;;5047713;28;20429;-51
2021/09/12 14:23:49;;;;;;;2.65;1.73;;;;;;;;;;5050689;28;20412;-52
2021/09/12 14:26:15;;;;;;;2.45;1.73;;;;;;;;;;5047481;28;20025;-51
2021/09/12 14:28:41;;;;;;;2.95;1.83;;;;;;;;;;5048910;28;20033;-51
2021/09/12 14:31:11;;;;;;;4.75;1.60;;;;;;;;;;5043517;28;20037;-51
2021/09/12 14:33:37;;;;;;;;;;;;;;;;;;5047087;28;20017;-51
2021/09/12 14:36:04;;;;;;;3.97;1.80;;;;;;;;;;5054843;28;20349;-52
2021/09/12 14:38:30;;;;;;;2.10;1.60;;;;;;;;;;5053411;28;20025;-51
2021/09/12 14:40:56;;;;;;;4.22;1.70;;;;;;;;;;5054521;28;20036;-51